| time (UTC) | temp C | wind direction | speed KPH | gust KPH | rain 1hr cm | rain 24hr cm | rain mn cm | humidity % | barometer mb |
| 20260510045056 | 21 | 80 | 22.5 | 33.8 | 0.00 | 0.00 | 0.00 | 67 | 1006.2 |
| 20260510044556 | 21 | 71 | 24.1 | 35.4 | 0.00 | 0.00 | 0.00 | 68 | 1006.0 |
| 20260510044055 | 21 | 86 | 19.3 | 37.0 | 0.00 | 0.00 | 0.00 | 67 | 1006.0 |
| 20260510043555 | 21 | 80 | 25.7 | 37.0 | 0.00 | 0.00 | 0.00 | 69 | 1006.0 |
| 20260510043056 | 20 | 71 | 25.7 | 37.0 | 0.00 | 0.00 | 0.00 | 70 | 1006.2 |
| 20260510042558 | 20 | 76 | 24.1 | 32.2 | 0.00 | 0.00 | 0.00 | 70 | 1006.4 |
| 20260510042056 | 20 | 71 | 22.5 | 32.2 | 0.00 | 0.00 | 0.00 | 70 | 1006.5 |
| 20260510041627 | 20 | 56 | 24.1 | 30.6 | 0.00 | 0.00 | 0.00 | 70 | 1006.3 |
| 20260510041054 | 20 | 72 | 20.9 | 33.8 | 0.00 | 0.00 | 0.00 | 69 | 1006.0 |
| 20260510040554 | 20 | 84 | 24.1 | 37.0 | 0.00 | 0.00 | 0.00 | 70 | 1005.8 |
| 20260510040053 | 20 | 57 | 27.4 | 37.0 | 0.00 | 0.00 | 0.00 | 71 | 1006.0 |
| 20260510035552 | 20 | 44 | 24.1 | 35.4 | 0.00 | 0.00 | 0.00 | 67 | 1006.2 |
| 20260510035053 | 21 | 59 | 24.1 | 37.0 | 0.00 | 0.00 | 0.00 | 68 | 1005.9 |
| 20260510034558 | 21 | 106 | 22.5 | 38.6 | 0.00 | 0.00 | 0.00 | 67 | 1004.9 |
| 20260510034057 | 21 | 126 | 29.0 | 38.6 | 0.00 | 0.00 | 0.00 | 67 | 1004.3 |
| 20260510033552 | 21 | 115 | 25.7 | 40.2 | 0.00 | 0.00 | 0.00 | 66 | 1004.0 |
| 20260510033102 | 21 | 138 | 27.4 | 38.6 | 0.00 | 0.00 | 0.00 | 65 | 1003.8 |
| 20260510032551 | 21 | 132 | 24.1 | 32.2 | 0.00 | 0.00 | 0.00 | 64 | 1003.8 |
| 20260510032052 | 21 | 136 | 20.9 | 32.2 | 0.00 | 0.00 | 0.00 | 64 | 1003.9 |
| 20260510031556 | 21 | 130 | 24.1 | 38.6 | 0.00 | 0.00 | 0.00 | 64 | 1003.9 |
| 20260510031053 | 21 | 125 | 30.6 | 38.6 | 0.00 | 0.00 | 0.00 | 64 | 1003.9 |
| 20260510030554 | 21 | 153 | 25.7 | 38.6 | 0.00 | 0.00 | 0.00 | 61 | 1003.6 |
| 20260510030051 | 21 | 144 | 22.5 | 43.5 | 0.00 | 0.00 | 0.00 | 59 | 1003.3 |
| 20260510025550 | 21 | 126 | 32.2 | 49.9 | 0.00 | 0.00 | 0.00 | 60 | 1002.9 |
| 20260510025054 | 21 | 136 | 33.8 | 48.3 | 0.00 | 0.00 | 0.00 | 59 | 1002.5 |
| 20260510024607 | 22 | 123 | 32.2 | 48.3 | 0.00 | 0.00 | 0.00 | 60 | 1002.3 |
| 20260510024053 | 22 | 121 | 35.4 | 51.5 | 0.00 | 0.00 | 0.00 | 60 | 1002.3 |
| 20260510023549 | 22 | 123 | 33.8 | 53.1 | 0.00 | 0.00 | 0.00 | 58 | 1002.2 |
| 20260510023055 | 22 | 114 | 38.6 | 53.1 | 0.00 | 0.00 | 0.00 | 57 | 1001.8 |
| 20260510022549 | 22 | 119 | 33.8 | 48.3 | 0.00 | 0.00 | 0.00 | 54 | 1002.0 |
| 20260510022052 | 22 | 113 | 29.0 | 45.1 | 0.00 | 0.00 | 0.00 | 52 | 1001.9 |
| 20260510021649 | 22 | 130 | 33.8 | 45.1 | 0.00 | 0.00 | 0.00 | 54 | 1001.8 |
| 20260510021048 | 22 | 123 | 27.4 | 41.8 | 0.00 | 0.00 | 0.00 | 61 | 1002.0 |
| 20260510020548 | 22 | 104 | 27.4 | 41.8 | 0.00 | 0.00 | 0.00 | 65 | 1002.2 |
| 20260510020048 | 21 | 111 | 24.1 | 41.8 | 0.00 | 0.00 | 0.00 | 67 | 1002.6 |
| 20260510015548 | 21 | 126 | 25.7 | 37.0 | 0.00 | 0.00 | 0.00 | 69 | 1002.4 |
| 20260510015050 | 21 | 99 | 24.1 | 37.0 | 0.00 | 0.00 | 0.00 | 70 | 1002.4 |
| 20260510014608 | 21 | 106 | 25.7 | 43.5 | 0.00 | 0.00 | 0.00 | 71 | 1002.8 |
| 20260510014050 | 20 | 73 | 32.2 | 45.1 | 0.00 | 0.00 | 0.00 | 73 | 1002.9 |
| 20260510013547 | 20 | 80 | 30.6 | 45.1 | 0.00 | 0.00 | 0.00 | 73 | 1003.3 |
| 20260510013100 | 20 | 67 | 30.6 | 45.1 | 0.00 | 0.00 | 0.00 | 76 | 1003.8 |
| 20260510012550 | 18 | 55 | 35.4 | 45.1 | 0.00 | 0.00 | 0.00 | 77 | 1003.6 |
| 20260510012046 | 17 | 61 | 30.6 | 49.9 | 0.00 | 0.00 | 0.00 | 78 | 1003.5 |
| 20260510011546 | 19 | 51 | 33.8 | 54.7 | 0.00 | 0.00 | 0.00 | 75 | 1003.3 |
| 20260510011048 | 20 | 66 | 37.0 | 67.6 | 0.00 | 0.00 | 0.00 | 74 | 1003.1 |
| 20260510010547 | 21 | 53 | 46.7 | 67.6 | 0.00 | 0.00 | 0.00 | 67 | 1003.2 |
| 20260510010045 | 27 | 39 | 24.1 | 41.8 | 0.00 | 0.00 | 0.00 | 46 | 1003.8 |
| 20260510005545 | 27 | 348 | 9.7 | 16.1 | 0.00 | 0.00 | 0.00 | 47 | 1004.2 |
| 20260510005047 | 27 | 128 | 1.6 | 29.0 | 0.00 | 0.00 | 0.00 | 46 | 1003.8 |
| 20260510004548 | 27 | 134 | 16.1 | 33.8 | 0.00 | 0.00 | 0.00 | 46 | 1002.6 |
| 20260510004044 | 27 | 135 | 24.1 | 38.6 | 0.00 | 0.00 | 0.00 | 46 | 1001.8 |
| 20260510003544 | 27 | 144 | 29.0 | 43.5 | 0.00 | 0.00 | 0.00 | 46 | 1001.3 |
| 20260510003044 | 27 | 148 | 32.2 | 41.8 | 0.00 | 0.00 | 0.00 | 47 | 1000.8 |
| 20260510002543 | 27 | 138 | 27.4 | 33.8 | 0.00 | 0.00 | 0.00 | 47 | 1000.7 |
| 20260510002044 | 27 | 125 | 22.5 | 38.6 | 0.00 | 0.00 | 0.00 | 46 | 1001.0 |
| 20260510001543 | 28 | 102 | 25.7 | 41.8 | 0.00 | 0.00 | 0.00 | 46 | 1001.2 |
| 20260510001042 | 28 | 103 | 27.4 | 41.8 | 0.00 | 0.00 | 0.00 | 46 | 1000.9 |
| 20260510000542 | 28 | 122 | 24.1 | 37.0 | 0.00 | 0.00 | 0.00 | 46 | 1001.1 |
| 20260510000042 | 28 | 127 | 27.4 | 35.4 | 0.00 | 0.00 | 0.00 | 45 | 1001.3 |
| 20260509235541 | 28 | 126 | 24.1 | 33.8 | 0.00 | 0.00 | 0.00 | 44 | 1001.5 |
| 20260509235045 | 28 | 143 | 20.9 | 37.0 | 0.00 | 0.00 | 0.00 | 43 | 1001.6 |
| 20260509234541 | 28 | 113 | 25.7 | 37.0 | 0.00 | 0.00 | 0.00 | 43 | 1001.5 |
| 20260509234041 | 28 | 121 | 22.5 | 33.8 | 0.00 | 0.00 | 0.00 | 43 | 1001.3 |
| 20260509233540 | 28 | 113 | 25.7 | 33.8 | 0.00 | 0.00 | 0.00 | 43 | 1001.3 |
| 20260509233040 | 29 | 131 | 27.4 | 33.8 | 0.00 | 0.00 | 0.00 | 42 | 1001.3 |
| 20260509232539 | 29 | 120 | 25.7 | 37.0 | 0.00 | 0.00 | 0.00 | 42 | 1001.2 |
| 20260509232040 | 29 | 106 | 20.9 | 37.0 | 0.00 | 0.00 | 0.00 | 41 | 1001.3 |
| 20260509231539 | 30 | 109 | 24.1 | 33.8 | 0.00 | 0.00 | 0.00 | 40 | 1001.3 |
| 20260509231041 | 30 | 138 | 22.5 | 35.4 | 0.00 | 0.00 | 0.00 | 41 | 1001.3 |
| 20260509230538 | 30 | 124 | 19.3 | 35.4 | 0.00 | 0.00 | 0.00 | 41 | 1001.3 |
| 20260509230038 | 30 | 111 | 22.5 | 37.0 | 0.00 | 0.00 | 0.00 | 41 | 1001.3 |
| 20260509225540 | 29 | 133 | 25.7 | 37.0 | 0.00 | 0.00 | 0.00 | 42 | 1001.3 |
| 20260509225037 | 29 | 138 | 22.5 | 33.8 | 0.00 | 0.00 | 0.00 | 42 | 1001.4 |
| 20260509224537 | 30 | 123 | 25.7 | 33.8 | 0.00 | 0.00 | 0.00 | 42 | 1001.6 |
| 20260509224037 | 30 | 143 | 12.9 | 35.4 | 0.00 | 0.00 | 0.00 | 41 | 1001.6 |
| 20260509223534 | 30 | 161 | 24.1 | 35.4 | 0.00 | 0.00 | 0.00 | 40 | 1001.8 |
| 20260509223043 | 30 | 165 | 19.3 | 29.0 | 0.00 | 0.00 | 0.00 | 40 | 1001.8 |
| 20260509222537 | 30 | 149 | 17.7 | 29.0 | 0.00 | 0.00 | 0.00 | 41 | 1001.7 |
| 20260509222035 | 30 | 148 | 22.5 | 32.2 | 0.00 | 0.00 | 0.00 | 40 | 1001.9 |
| 20260509221533 | 30 | 145 | 22.5 | 32.2 | 0.00 | 0.00 | 0.00 | 39 | 1001.9 |
| 20260509221032 | 30 | 126 | 19.3 | 29.0 | 0.00 | 0.00 | 0.00 | 41 | 1002.0 |
| 20260509220531 | 30 | 136 | 20.9 | 35.4 | 0.00 | 0.00 | 0.00 | 41 | 1002.2 |
| 20260509220031 | 30 | 136 | 25.7 | 35.4 | 0.00 | 0.00 | 0.00 | 41 | 1002.2 |
| 20260509215530 | 30 | 160 | 19.3 | 32.2 | 0.00 | 0.00 | 0.00 | 39 | 1002.2 |
| 20260509215029 | 30 | 153 | 22.5 | 32.2 | 0.00 | 0.00 | 0.00 | 40 | 1002.3 |
| 20260509214529 | 30 | 148 | 20.9 | 30.6 | 0.00 | 0.00 | 0.00 | 40 | 1002.4 |
| 20260509214028 | 31 | 156 | 17.7 | 30.6 | 0.00 | 0.00 | 0.00 | 39 | 1002.5 |
| 20260509213528 | 31 | 127 | 20.9 | 29.0 | 0.00 | 0.00 | 0.00 | 38 | 1002.5 |
| 20260509213028 | 31 | 177 | 12.9 | 27.4 | 0.00 | 0.00 | 0.00 | 37 | 1002.6 |
| 20260509212526 | 31 | 148 | 16.1 | 27.4 | 0.00 | 0.00 | 0.00 | 38 | 1002.7 |
| 20260509212026 | 31 | 175 | 14.5 | 27.4 | 0.00 | 0.00 | 0.00 | 37 | 1002.7 |
| 20260509211526 | 31 | 146 | 14.5 | 29.0 | 0.00 | 0.00 | 0.00 | 36 | 1002.9 |
| 20260509211027 | 31 | 155 | 16.1 | 29.0 | 0.00 | 0.00 | 0.00 | 35 | 1002.8 |
| 20260509210526 | 31 | 157 | 20.9 | 27.4 | 0.00 | 0.00 | 0.00 | 35 | 1002.9 |
| 20260509210029 | 31 | 166 | 16.1 | 30.6 | 0.00 | 0.00 | 0.00 | 36 | 1002.9 |
| 20260509205523 | 31 | 121 | 20.9 | 29.0 | 0.00 | 0.00 | 0.00 | 34 | 1003.0 |
| 20260509205026 | 31 | 150 | 17.7 | 27.4 | 0.00 | 0.00 | 0.00 | 35 | 1003.0 |
| 20260509204522 | 31 | 153 | 14.5 | 20.9 | 0.00 | 0.00 | 0.00 | 34 | 1003.1 |
| 20260509204021 | 30 | 153 | 9.7 | 29.0 | 0.00 | 0.00 | 0.00 | 35 | 1003.2 |
| 20260509203520 | 31 | 143 | 19.3 | 29.0 | 0.00 | 0.00 | 0.00 | 35 | 1003.2 |
| 20260509203019 | 30 | 160 | 11.3 | 25.7 | 0.00 | 0.00 | 0.00 | 36 | 1003.4 |
| 20260509202519 | 30 | 133 | 12.9 | 25.7 | 0.00 | 0.00 | 0.00 | 36 | 1003.4 |
| 20260509202019 | 31 | 145 | 14.5 | 30.6 | 0.00 | 0.00 | 0.00 | 35 | 1003.4 |
| 20260509201524 | 30 | 159 | 19.3 | 30.6 | 0.00 | 0.00 | 0.00 | 33 | 1003.5 |
| 20260509201016 | 30 | 135 | 9.7 | 24.1 | 0.00 | 0.00 | 0.00 | 35 | 1003.6 |
| 20260509200516 | 30 | 160 | 9.7 | 24.1 | 0.00 | 0.00 | 0.00 | 35 | 1003.8 |
| 20260509200016 | 30 | 152 | 9.7 | 20.9 | 0.00 | 0.00 | 0.00 | 34 | 1003.8 |
| 20260509195514 | 30 | 146 | 8.0 | 19.3 | 0.00 | 0.00 | 0.00 | 34 | 1003.9 |
| 20260509195012 | 30 | 182 | 11.3 | 25.7 | 0.00 | 0.00 | 0.00 | 35 | 1004.0 |
| 20260509194511 | 30 | 146 | 16.1 | 25.7 | 0.00 | 0.00 | 0.00 | 34 | 1004.0 |
| 20260509194013 | 30 | 159 | 14.5 | 22.5 | 0.00 | 0.00 | 0.00 | 34 | 1004.1 |
| 20260509193510 | 30 | 158 | 11.3 | 20.9 | 0.00 | 0.00 | 0.00 | 36 | 1004.1 |
| 20260509193009 | 30 | 143 | 8.0 | 24.1 | 0.00 | 0.00 | 0.00 | 33 | 1004.3 |
| 20260509192509 | 30 | 154 | 14.5 | 24.1 | 0.00 | 0.00 | 0.00 | 35 | 1004.3 |
| 20260509192008 | 30 | 180 | 12.9 | 24.1 | 0.00 | 0.00 | 0.00 | 35 | 1004.3 |
| 20260509191508 | 30 | 138 | 16.1 | 24.1 | 0.00 | 0.00 | 0.00 | 36 | 1004.4 |
| 20260509191006 | 30 | 144 | 6.4 | 24.1 | 0.00 | 0.00 | 0.00 | 36 | 1004.6 |
| 20260509190505 | 29 | 159 | 9.7 | 20.9 | 0.00 | 0.00 | 0.00 | 33 | 1004.7 |
| 20260509190006 | 29 | 163 | 6.4 | 20.9 | 0.00 | 0.00 | 0.00 | 38 | 1004.8 |
| 20260509185504 | 29 | 161 | 14.5 | 24.1 | 0.00 | 0.00 | 0.00 | 34 | 1004.7 |
| 20260509185003 | 28 | 156 | 14.5 | 24.1 | 0.00 | 0.00 | 0.00 | 36 | 1004.8 |
| 20260509184502 | 28 | 130 | 12.9 | 19.3 | 0.00 | 0.00 | 0.00 | 37 | 1004.9 |
| 20260509184001 | 28 | 169 | 8.0 | 22.5 | 0.00 | 0.00 | 0.00 | 40 | 1004.9 |
| 20260509183559 | 28 | 146 | 3.2 | 22.5 | 0.00 | 0.00 | 0.00 | 42 | 1004.9 |
| 20260509183059 | 28 | 146 | 12.9 | 22.5 | 0.00 | 0.00 | 0.00 | 40 | 1005.1 |
| 20260509182557 | 28 | 121 | 14.5 | 24.1 | 0.00 | 0.00 | 0.00 | 41 | 1005.1 |
| 20260509182056 | 28 | 152 | 16.1 | 22.5 | 0.00 | 0.00 | 0.00 | 42 | 1005.2 |
| 20260509181556 | 28 | 142 | 11.3 | 25.7 | 0.00 | 0.00 | 0.00 | 41 | 1005.3 |
| 20260509181054 | 27 | 179 | 6.4 | 25.7 | 0.00 | 0.00 | 0.00 | 45 | 1005.4 |
| 20260509180554 | 27 | 150 | 11.3 | 17.7 | 0.00 | 0.00 | 0.00 | 45 | 1005.6 |
| 20260509180053 | 27 | 116 | 8.0 | 16.1 | 0.00 | 0.00 | 0.00 | 46 | 1005.7 |
| 20260509175552 | 27 | 234 | 6.4 | 24.1 | 0.00 | 0.00 | 0.00 | 47 | 1005.9 |
| 20260509175052 | 27 | 175 | 12.9 | 24.1 | 0.00 | 0.00 | 0.00 | 46 | 1006.0 |
| 20260509174551 | 27 | 134 | 8.0 | 20.9 | 0.00 | 0.00 | 0.00 | 48 | 1006.0 |
| 20260509174152 | 27 | 171 | 6.4 | 20.9 | 0.00 | 0.00 | 0.00 | 48 | 1006.1 |
| 20260509173549 | 27 | 150 | 3.2 | 16.1 | 0.00 | 0.00 | 0.00 | 49 | 1006.2 |
| 20260509173115 | 27 | 180 | 6.4 | 16.1 | 0.00 | 0.00 | 0.00 | 48 | 1006.3 |
| 20260509172548 | 27 | 215 | 4.8 | 16.1 | 0.00 | 0.00 | 0.00 | 50 | 1006.3 |
| 20260509172047 | 27 | 170 | 6.4 | 16.1 | 0.00 | 0.00 | 0.00 | 52 | 1006.4 |
| 20260509171547 | 26 | 202 | 12.9 | 16.1 | 0.00 | 0.00 | 0.00 | 52 | 1006.5 |
| 20260509171047 | 26 | 204 | 6.4 | 16.1 | 0.00 | 0.00 | 0.00 | 52 | 1006.5 |
| 20260509170548 | 26 | 201 | 6.4 | 17.7 | 0.00 | 0.00 | 0.00 | 51 | 1006.5 |
| 20260509170054 | 26 | 175 | 4.8 | 19.3 | 0.00 | 0.00 | 0.00 | 54 | 1006.6 |
| 20260509165542 | 26 | 245 | 8.0 | 19.3 | 0.00 | 0.00 | 0.00 | 54 | 1006.6 |
| 20260509165041 | 26 | 173 | 6.4 | 14.5 | 0.00 | 0.00 | 0.00 | 55 | 1006.7 |
| 20260509164541 | 26 | 203 | 9.7 | 14.5 | 0.00 | 0.00 | 0.00 | 56 | 1006.8 |
| 20260509164040 | 25 | 187 | 1.6 | 16.1 | 0.00 | 0.00 | 0.00 | 56 | 1006.8 |
| 20260509163539 | 25 | 186 | 9.7 | 16.1 | 0.00 | 0.00 | 0.00 | 55 | 1006.9 |
| 20260509163037 | 25 | 146 | 6.4 | 16.1 | 0.00 | 0.00 | 0.00 | 57 | 1007.0 |
| 20260509162540 | 25 | 191 | 9.7 | 14.5 | 0.00 | 0.00 | 0.00 | 58 | 1007.0 |
| 20260509162035 | 25 | 152 | 9.7 | 16.1 | 0.00 | 0.00 | 0.00 | 57 | 1007.0 |
| 20260509161539 | 24 | 167 | 9.7 | 16.1 | 0.00 | 0.00 | 0.00 | 62 | 1007.2 |
| 20260509161033 | 24 | 164 | 6.4 | 16.1 | 0.00 | 0.00 | 0.00 | 62 | 1007.2 |
| 20260509160532 | 24 | 176 | 4.8 | 14.5 | 0.00 | 0.00 | 0.00 | 63 | 1007.3 |
| 20260509160032 | 23 | 157 | 6.4 | 16.1 | 0.00 | 0.00 | 0.00 | 62 | 1007.3 |
| 20260509155529 | 23 | 165 | 6.4 | 12.9 | 0.00 | 0.00 | 0.00 | 64 | 1007.3 |
| 20260509155028 | 23 | 187 | 8.0 | 16.1 | 0.00 | 0.00 | 0.00 | 66 | 1007.3 |
| 20260509154527 | 23 | 196 | 6.4 | 14.5 | 0.00 | 0.00 | 0.00 | 68 | 1007.3 |
| 20260509154027 | 23 | 205 | 6.4 | 14.5 | 0.00 | 0.00 | 0.00 | 68 | 1007.3 |
| 20260509153524 | 23 | 148 | 8.0 | 17.7 | 0.00 | 0.00 | 0.00 | 69 | 1007.4 |
| 20260509153031 | 22 | 192 | 9.7 | 17.7 | 0.00 | 0.00 | 0.00 | 70 | 1007.5 |
| 20260509152522 | 22 | 165 | 9.7 | 16.1 | 0.00 | 0.00 | 0.00 | 71 | 1007.5 |
| 20260509152020 | 22 | 173 | 11.3 | 20.9 | 0.00 | 0.00 | 0.00 | 69 | 1007.5 |
| 20260509151520 | 22 | 163 | 11.3 | 16.1 | 0.00 | 0.00 | 0.00 | 69 | 1007.6 |
| 20260509151023 | 22 | 163 | 9.7 | 16.1 | 0.00 | 0.00 | 0.00 | 70 | 1007.7 |
| 20260509150516 | 22 | 177 | 9.7 | 17.7 | 0.00 | 0.00 | 0.00 | 71 | 1007.6 |
| 20260509150015 | 21 | 161 | 9.7 | 14.5 | 0.00 | 0.00 | 0.00 | 72 | 1007.7 |
| 20260509145514 | 21 | 197 | 8.0 | 16.1 | 0.00 | 0.00 | 0.00 | 74 | 1007.7 |
| 20260509145013 | 21 | 175 | 9.7 | 17.7 | 0.00 | 0.00 | 0.00 | 76 | 1007.8 |
| 20260509144511 | 21 | 166 | 12.9 | 17.7 | 0.00 | 0.00 | 0.00 | 76 | 1007.8 |
| 20260509144009 | 20 | 176 | 9.7 | 16.1 | 0.00 | 0.00 | 0.00 | 78 | 1007.8 |
| 20260509143513 | 20 | 201 | 6.4 | 14.5 | 0.00 | 0.00 | 0.00 | 78 | 1007.8 |
| 20260509143011 | 20 | 171 | 4.8 | 11.3 | 0.00 | 0.00 | 0.00 | 78 | 1007.8 |
| 20260509142504 | 20 | 159 | 4.8 | 11.3 | 0.00 | 0.00 | 0.00 | 77 | 1007.7 |
| 20260509142004 | 19 | 157 | 6.4 | 11.3 | 0.00 | 0.00 | 0.00 | 76 | 1007.6 |
| 20260509141502 | 19 | 190 | 3.2 | 6.4 | 0.00 | 0.00 | 0.00 | 78 | 1007.6 |
| 20260509141002 | 18 | 196 | 1.6 | 4.8 | 0.00 | 0.00 | 0.00 | 78 | 1007.5 |
| 20260509140601 | 18 | 196 | 0.0 | 6.4 | 0.00 | 0.00 | 0.00 | 79 | 1007.5 |
| 20260509140100 | 17 | 194 | 1.6 | 9.7 | 0.00 | 0.00 | 0.00 | 80 | 1007.5 |
| 20260509135556 | 17 | 195 | 1.6 | 8.0 | 0.00 | 0.00 | 0.00 | 82 | 1007.5 |
| 20260509135058 | 17 | 194 | 0.0 | 0.0 | 0.00 | 0.00 | 0.00 | 83 | 1007.4 |
| 20260509134554 | 16 | 194 | 0.0 | 0.0 | 0.00 | 0.00 | 0.00 | 84 | 1007.4 |
| 20260509134057 | 16 | 192 | 0.0 | 1.6 | 0.00 | 0.00 | 0.00 | 85 | 1007.3 |
| 20260509133553 | 16 | 192 | 0.0 | 1.6 | 0.00 | 0.00 | 0.00 | 86 | 1007.2 |
| 20260509133052 | 16 | 192 | 0.0 | 3.2 | 0.00 | 0.00 | 0.00 | 87 | 1007.2 |
| 20260509132552 | 15 | 192 | 0.0 | 4.8 | 0.00 | 0.00 | 0.00 | 87 | 1007.0 |
| 20260509132051 | 15 | 192 | 1.6 | 4.8 | 0.00 | 0.00 | 0.00 | 89 | 1007.1 |
| 20260509131559 | 15 | 185 | 1.6 | 3.2 | 0.00 | 0.00 | 0.00 | 89 | 1007.1 |
| 20260509131050 | 15 | 185 | 0.0 | 4.8 | 0.00 | 0.00 | 0.00 | 90 | 1007.0 |
| 20260509130550 | 14 | 185 | 3.2 | 4.8 | 0.00 | 0.00 | 0.00 | 91 | 1006.9 |
| 20260509130122 | 14 | 182 | 0.0 | 4.8 | 0.00 | 0.00 | 0.00 | 91 | 1006.8 |
| 20260509125550 | 14 | 180 | 0.0 | 4.8 | 0.00 | 0.00 | 0.00 | 92 | 1006.8 |
| 20260509125051 | 14 | 175 | 0.0 | 3.2 | 0.00 | 0.00 | 0.00 | 92 | 1006.8 |
| 20260509124550 | 13 | 174 | 0.0 | 4.8 | 0.00 | 0.00 | 0.00 | 93 | 1006.8 |
| 20260509124050 | 13 | 174 | 1.6 | 3.2 | 0.00 | 0.00 | 0.00 | 93 | 1006.7 |
| 20260509123553 | 13 | 174 | 0.0 | 4.8 | 0.00 | 0.00 | 0.00 | 93 | 1006.6 |
| 20260509123117 | 13 | 174 | 3.2 | 4.8 | 0.00 | 0.00 | 0.00 | 93 | 1006.6 |
| 20260509122548 | 13 | 174 | 3.2 | 6.4 | 0.00 | 0.00 | 0.00 | 93 | 1006.5 |
| 20260509122050 | 13 | 173 | 3.2 | 8.0 | 0.00 | 0.00 | 0.00 | 93 | 1006.4 |
| 20260509121549 | 13 | 173 | 6.4 | 8.0 | 0.00 | 0.00 | 0.00 | 93 | 1006.4 |
| 20260509121049 | 13 | 98 | 1.6 | 4.8 | 0.00 | 0.00 | 0.00 | 93 | 1006.2 |
| 20260509120549 | 13 | 98 | 1.6 | 4.8 | 0.00 | 0.00 | 0.00 | 93 | 1006.2 |
| 20260509120051 | 13 | 98 | 3.2 | 4.8 | 0.00 | 0.00 | 0.00 | 94 | 1006.2 |
| 20260509115548 | 13 | 96 | 1.6 | 6.4 | 0.00 | 0.00 | 0.00 | 94 | 1006.0 |
| 20260509115048 | 13 | 95 | 1.6 | 6.4 | 0.00 | 0.00 | 0.00 | 94 | 1006.0 |
| 20260509114648 | 12 | 95 | 3.2 | 6.4 | 0.00 | 0.00 | 0.00 | 94 | 1006.1 |
| 20260509114048 | 12 | 52 | 3.2 | 6.4 | 0.00 | 0.00 | 0.00 | 93 | 1005.8 |
| 20260509113547 | 13 | 52 | 3.2 | 4.8 | 0.00 | 0.00 | 0.00 | 94 | 1005.8 |
| 20260509113051 | 13 | 52 | 0.0 | 6.4 | 0.00 | 0.00 | 0.00 | 94 | 1005.9 |
| 20260509112553 | 13 | 52 | 3.2 | 8.0 | 0.00 | 0.00 | 0.00 | 94 | 1005.8 |
| 20260509112045 | 13 | 52 | 4.8 | 8.0 | 0.00 | 0.00 | 0.00 | 93 | 1005.7 |
| 20260509111544 | 13 | 53 | 4.8 | 8.0 | 0.00 | 0.00 | 0.00 | 93 | 1005.8 |
| 20260509111044 | 13 | 55 | 3.2 | 6.4 | 0.00 | 0.00 | 0.00 | 94 | 1005.9 |
| 20260509110543 | 13 | 55 | 3.2 | 8.0 | 0.00 | 0.00 | 0.00 | 94 | 1005.8 |
| 20260509110051 | 13 | 50 | 4.8 | 8.0 | 0.00 | 0.00 | 0.00 | 92 | 1005.6 |
| 20260509105543 | 14 | 275 | 0.0 | 0.0 | 0.00 | 0.00 | 0.00 | 93 | 1005.7 |
| 20260509105042 | 14 | 275 | 0.0 | 0.0 | 0.00 | 0.00 | 0.00 | 94 | 1005.8 |
| 20260509104542 | 14 | 275 | 0.0 | 0.0 | 0.00 | 0.00 | 0.00 | 93 | 1005.8 |
| 20260509104045 | 14 | 275 | 0.0 | 0.0 | 0.00 | 0.00 | 0.00 | 93 | 1005.7 |
| 20260509103541 | 14 | 275 | 0.0 | 0.0 | 0.00 | 0.00 | 0.00 | 93 | 1005.7 |
| 20260509103041 | 14 | 275 | 0.0 | 0.0 | 0.00 | 0.00 | 0.00 | 93 | 1005.7 |
| 20260509102540 | 14 | 275 | 0.0 | 0.0 | 0.00 | 0.00 | 0.00 | 92 | 1005.7 |
| 20260509102105 | 14 | 275 | 0.0 | 0.0 | 0.00 | 0.00 | 0.00 | 93 | 1005.8 |
| 20260509101552 | 14 | 275 | 0.0 | 0.0 | 0.00 | 0.00 | 0.00 | 93 | 1005.8 |
| 20260509101040 | 14 | 275 | 0.0 | 0.0 | 0.00 | 0.00 | 0.00 | 93 | 1005.7 |
| 20260509100539 | 14 | 275 | 0.0 | 0.0 | 0.00 | 0.00 | 0.00 | 93 | 1005.9 |
| 20260509100039 | 13 | 275 | 0.0 | 0.0 | 0.00 | 0.00 | 0.00 | 93 | 1005.9 |
| 20260509095539 | 13 | 275 | 0.0 | 0.0 | 0.00 | 0.00 | 0.00 | 92 | 1005.9 |
| 20260509095039 | 13 | 275 | 0.0 | 0.0 | 0.00 | 0.00 | 0.00 | 92 | 1005.8 |
| 20260509094539 | 13 | 275 | 0.0 | 0.0 | 0.00 | 0.00 | 0.00 | 92 | 1005.8 |
| 20260509094038 | 13 | 275 | 0.0 | 0.0 | 0.00 | 0.00 | 0.00 | 91 | 1005.7 |
| 20260509093536 | 14 | 275 | 0.0 | 0.0 | 0.00 | 0.00 | 0.00 | 92 | 1005.8 |
| 20260509093036 | 14 | 275 | 0.0 | 0.0 | 0.00 | 0.00 | 0.00 | 91 | 1005.8 |
| 20260509092535 | 14 | 275 | 0.0 | 0.0 | 0.00 | 0.00 | 0.00 | 92 | 1005.8 |
| 20260509092034 | 14 | 275 | 0.0 | 0.0 | 0.00 | 0.00 | 0.00 | 92 | 1005.8 |
| 20260509091541 | 14 | 275 | 0.0 | 4.8 | 0.00 | 0.00 | 0.00 | 92 | 1006.0 |
| 20260509091035 | 14 | 275 | 1.6 | 6.4 | 0.00 | 0.00 | 0.00 | 91 | 1006.0 |
| 20260509090534 | 15 | 275 | 4.8 | 6.4 | 0.00 | 0.00 | 0.00 | 91 | 1006.0 |
| 20260509090033 | 15 | 275 | 3.2 | 6.4 | 0.00 | 0.00 | 0.00 | 92 | 1006.1 |
| 20260509085532 | 14 | 275 | 3.2 | 6.4 | 0.00 | 0.00 | 0.00 | 92 | 1006.2 |
| 20260509085034 | 14 | 275 | 3.2 | 6.4 | 0.00 | 0.00 | 0.00 | 91 | 1006.2 |
| 20260509084532 | 14 | 275 | 3.2 | 6.4 | 0.00 | 0.00 | 0.00 | 92 | 1006.2 |
| 20260509084032 | 14 | 259 | 3.2 | 4.8 | 0.00 | 0.00 | 0.00 | 91 | 1006.3 |
| 20260509083531 | 14 | 259 | 3.2 | 6.4 | 0.00 | 0.00 | 0.00 | 90 | 1006.3 |
| 20260509083030 | 14 | 259 | 1.6 | 6.4 | 0.00 | 0.00 | 0.00 | 90 | 1006.3 |
| 20260509082630 | 14 | 259 | 3.2 | 6.4 | 0.00 | 0.00 | 0.00 | 90 | 1006.3 |
| 20260509082029 | 14 | 259 | 4.8 | 6.4 | 0.00 | 0.00 | 0.00 | 91 | 1006.4 |
| 20260509081630 | 14 | 259 | 1.6 | 4.8 | 0.00 | 0.00 | 0.00 | 90 | 1006.5 |
| 20260509081028 | 15 | 259 | 1.6 | 4.8 | 0.00 | 0.00 | 0.00 | 89 | 1006.6 |
| 20260509080528 | 15 | 259 | 3.2 | 4.8 | 0.00 | 0.00 | 0.00 | 90 | 1006.5 |
| 20260509080028 | 14 | 259 | 0.0 | 1.6 | 0.00 | 0.00 | 0.00 | 88 | 1006.6 |
| 20260509075528 | 14 | 259 | 0.0 | 3.2 | 0.00 | 0.00 | 0.00 | 88 | 1006.6 |
| 20260509075032 | 15 | 259 | 1.6 | 4.8 | 0.00 | 0.00 | 0.00 | 88 | 1006.7 |
| 20260509074528 | 15 | 259 | 1.6 | 4.8 | 0.00 | 0.00 | 0.00 | 87 | 1006.7 |
| 20260509074028 | 15 | 259 | 1.6 | 3.2 | 0.00 | 0.00 | 0.00 | 88 | 1006.8 |
| 20260509073527 | 15 | 259 | 0.0 | 3.2 | 0.00 | 0.00 | 0.00 | 88 | 1006.9 |
| 20260509073027 | 15 | 259 | 1.6 | 6.4 | 0.00 | 0.00 | 0.00 | 89 | 1006.9 |
| 20260509072528 | 14 | 259 | 3.2 | 6.4 | 0.00 | 0.00 | 0.00 | 87 | 1006.8 |
| 20260509072024 | 15 | 49 | 0.0 | 0.0 | 0.00 | 0.00 | 0.00 | 88 | 1006.8 |
| 20260509071524 | 15 | 49 | 0.0 | 3.2 | 0.00 | 0.00 | 0.00 | 89 | 1006.7 |
| 20260509071023 | 15 | 49 | 0.0 | 4.8 | 0.00 | 0.00 | 0.00 | 89 | 1006.8 |
| 20260509070522 | 15 | 50 | 0.0 | 4.8 | 0.00 | 0.00 | 0.00 | 89 | 1007.0 |
| 20260509070022 | 16 | 50 | 0.0 | 0.0 | 0.00 | 0.00 | 0.00 | 89 | 1007.0 |
| 20260509065521 | 16 | 50 | 0.0 | 0.0 | 0.00 | 0.00 | 0.00 | 90 | 1006.9 |
| 20260509065022 | 16 | 50 | 0.0 | 1.6 | 0.00 | 0.00 | 0.00 | 90 | 1006.9 |
| 20260509064521 | 15 | 50 | 0.0 | 1.6 | 0.00 | 0.00 | 0.00 | 89 | 1006.9 |
| 20260509064023 | 15 | 50 | 0.0 | 4.8 | 0.00 | 0.00 | 0.00 | 89 | 1006.9 |
| 20260509063521 | 15 | 50 | 1.6 | 4.8 | 0.00 | 0.00 | 0.00 | 89 | 1006.8 |
| 20260509063018 | 15 | 50 | 3.2 | 4.8 | 0.00 | 0.00 | 0.00 | 88 | 1006.7 |
| 20260509062520 | 16 | 49 | 3.2 | 8.0 | 0.00 | 0.00 | 0.00 | 88 | 1006.6 |
| 20260509062017 | 16 | 50 | 3.2 | 9.7 | 0.00 | 0.00 | 0.00 | 88 | 1006.5 |
| 20260509061520 | 16 | 38 | 6.4 | 8.0 | 0.00 | 0.00 | 0.00 | 88 | 1006.6 |
| 20260509061015 | 16 | 27 | 4.8 | 6.4 | 0.00 | 0.00 | 0.00 | 88 | 1006.5 |
| 20260509060516 | 16 | 28 | 1.6 | 6.4 | 0.00 | 0.00 | 0.00 | 88 | 1006.4 |
| 20260509060015 | 16 | 28 | 3.2 | 6.4 | 0.00 | 0.00 | 0.00 | 88 | 1006.5 |
| 20260509055515 | 16 | 28 | 3.2 | 8.0 | 0.00 | 0.00 | 0.00 | 88 | 1006.5 |
| 20260509055014 | 16 | 28 | 6.4 | 8.0 | 0.00 | 0.00 | 0.00 | 87 | 1006.6 |
| 20260509054514 | 16 | 29 | 4.8 | 6.4 | 0.00 | 0.00 | 0.00 | 86 | 1006.6 |
| 20260509054018 | 16 | 49 | 3.2 | 6.4 | 0.00 | 0.00 | 0.00 | 86 | 1006.6 |
| 20260509053512 | 16 | 50 | 3.2 | 6.4 | 0.00 | 0.00 | 0.00 | 85 | 1006.6 |
| 20260509053014 | 16 | 49 | 3.2 | 6.4 | 0.00 | 0.00 | 0.00 | 86 | 1006.6 |
| 20260509052512 | 16 | 45 | 0.0 | 6.4 | 0.00 | 0.00 | 0.00 | 85 | 1006.7 |
| 20260509052009 | 16 | 44 | 1.6 | 8.0 | 0.00 | 0.00 | 0.00 | 85 | 1006.7 |
| 20260509051509 | 16 | 44 | 4.8 | 8.0 | 0.00 | 0.00 | 0.00 | 85 | 1006.6 |
| 20260509051007 | 16 | 95 | 4.8 | 9.7 | 0.00 | 0.00 | 0.00 | 84 | 1006.4 |
| 20260509050508 | 17 | 96 | 3.2 | 6.4 | 0.00 | 0.00 | 0.00 | 84 | 1006.2 |
| 20260509050015 | 17 | 96 | 4.8 | 6.4 | 0.00 | 0.00 | 0.00 | 84 | 1006.2 |
| 20260509045503 | 17 | 96 | 3.2 | 6.4 | 0.00 | 0.00 | 0.00 | 83 | 1006.2 |